Portada
METAR-TAF:

METAR-TAF

Aeroports :

Birjand, Iran

latitud: 32-52N, longitud: 059-12E, altitud: 1491 m

Observació

L'informe es va fer fa 52 minuts, a les 06:00 UTC
Vent 6 kt del Est/Nord-Est
Temperatura 14°C
Humitat 18%
Pressió 1019 hPa
Visibilitat: 8000 m

METAR: OIMB 210600Z 07006KT 8000 NSC 14/M10 Q1019

Hora: 10:22 (06:52 UTC)


TAF: manca

Observacions i pronòstics meteorològics de més de 4000 aeroports (METAR i TAF).

Les estacions disponibles són els punts grocs i vermells al mapa.

Posi el ratolí al punt desitjat per veure el nom de l'estació.

Feu clic per veure les observacions i els pronòstics meteorològics.

Per canviar el mapa: feu clic els botons verds amb una creu de color negre per apropar; al botó verd amb un guió per allunyar la imatge; o en les fletxes verdes per a mapes adjacents.


METAR-TAF: